createdAt,value
2022-11-21T14:30:30.270Z,70.11
2022-11-21T14:32:58.449Z,69.10
2022-11-21T14:35:26.559Z,69.14
2022-11-21T14:37:55.278Z,67.90
2022-11-21T14:40:25.133Z,68.65
2022-11-21T14:42:53.192Z,69.35
2022-11-21T14:45:23.029Z,68.99
2022-11-21T14:47:54.101Z,68.49
2022-11-21T14:50:25.187Z,68.84
2022-11-21T14:52:57.403Z,69.55
2022-11-21T14:55:30.942Z,69.18
2022-11-21T14:58:00.771Z,67.49
2022-11-21T15:00:58.025Z,68.84
2022-11-21T15:03:23.013Z,69.79
2022-11-21T15:06:08.482Z,70.21
2022-11-21T15:09:29.000Z,70.38
2022-11-21T15:11:31.286Z,71.49
2022-11-21T15:14:17.845Z,71.39
2022-11-21T15:16:47.552Z,71.37
2022-11-21T15:19:22.177Z,72.17
2022-11-21T15:21:51.292Z,71.63
2022-11-21T15:24:27.985Z,72.22
2022-11-21T15:26:56.329Z,72.50
2022-11-21T15:29:24.576Z,72.95
2022-11-21T15:32:09.149Z,72.93
2022-11-21T15:34:40.029Z,73.25
2022-11-21T15:37:15.832Z,73.97
2022-11-21T15:39:44.906Z,73.93
2022-11-21T15:42:30.074Z,73.87
2022-11-21T15:44:59.712Z,73.88
2022-11-21T15:47:28.565Z,74.66
2022-11-21T15:49:58.107Z,75.76
2022-11-21T15:52:26.241Z,76.91
2022-11-21T15:54:54.293Z,76.52
2022-11-21T15:57:22.837Z,77.88
2022-11-21T15:59:51.081Z,78.24
2022-11-21T16:02:19.160Z,78.56
2022-11-21T16:04:47.220Z,78.37
2022-11-21T16:07:16.727Z,79.67
2022-11-21T16:09:45.975Z,80.21
2022-11-21T16:12:14.079Z,80.87
2022-11-21T16:14:42.168Z,80.78
2022-11-21T16:17:10.226Z,82.01
2022-11-21T16:19:38.307Z,81.75
2022-11-21T16:22:06.392Z,82.24
2022-11-21T16:24:35.834Z,82.18
2022-11-21T16:27:03.866Z,82.05
2022-11-21T16:29:31.963Z,82.93
2022-11-21T16:31:59.972Z,82.20
2022-11-21T16:34:28.478Z,82.74
2022-11-21T16:36:56.601Z,82.39
2022-11-21T16:39:24.621Z,82.24
2022-11-21T16:41:54.012Z,82.64
2022-11-21T16:44:22.071Z,83.72
2022-11-21T16:46:51.696Z,84.33
2022-11-21T16:49:20.221Z,84.51
2022-11-21T16:51:48.245Z,84.31
2022-11-21T16:54:16.452Z,84.55
2022-11-21T16:56:44.486Z,83.63
2022-11-21T16:59:13.865Z,83.84
2022-11-21T17:01:42.019Z,84.29
2022-11-21T17:04:15.589Z,82.90
2022-11-21T17:06:45.502Z,82.45
2022-11-21T17:09:13.555Z,83.17
2022-11-21T17:11:41.704Z,82.89
2022-11-21T17:14:13.774Z,82.80
2022-11-21T17:16:42.090Z,82.21
2022-11-21T17:19:12.198Z,82.46
2022-11-21T17:21:40.308Z,83.09
2022-11-21T17:24:08.446Z,82.36
2022-11-21T17:26:37.337Z,82.83
2022-11-21T17:29:05.581Z,81.77
2022-11-21T17:31:35.083Z,82.08
2022-11-21T17:34:03.351Z,82.82
2022-11-21T17:36:34.497Z,82.04
2022-11-21T17:39:03.001Z,81.62
2022-11-21T17:41:31.060Z,82.17
2022-11-21T17:44:00.990Z,82.32
2022-11-21T17:46:29.082Z,82.01
2022-11-21T17:48:59.343Z,81.76
2022-11-21T17:51:29.464Z,81.82
2022-11-21T17:53:58.021Z,82.65
2022-11-21T17:56:28.650Z,81.77
2022-11-21T17:58:57.248Z,82.46
2022-11-21T18:01:25.377Z,82.61
2022-11-21T18:03:57.161Z,82.09
2022-11-21T18:06:28.310Z,82.75
2022-11-21T18:08:57.176Z,83.56
2022-11-21T18:11:29.677Z,83.25
2022-11-21T18:14:00.412Z,82.77
2022-11-21T18:16:29.779Z,83.39
2022-11-21T18:18:58.050Z,83.07
2022-11-21T18:21:28.860Z,82.84
2022-11-21T18:23:59.562Z,83.74
2022-11-21T18:26:29.206Z,82.84
2022-11-21T18:29:20.523Z,83.10
2022-11-21T18:31:46.480Z,83.41
2022-11-21T18:34:14.491Z,82.76
2022-11-21T18:36:43.876Z,82.82
2022-11-21T18:39:15.247Z,84.05
2022-11-21T18:41:44.137Z,83.72
2022-11-21T18:44:20.091Z,84.13
2022-11-21T18:46:49.986Z,84.74
2022-11-21T18:49:18.219Z,84.49
2022-11-21T18:51:48.447Z,83.75
2022-11-21T18:54:16.929Z,84.48
2022-11-21T18:56:44.981Z,84.39
2022-11-21T18:59:13.022Z,84.39
2022-11-21T19:01:41.154Z,84.12
2022-11-21T19:04:09.420Z,84.06
2022-11-21T19:06:37.565Z,84.28
2022-11-21T19:09:08.208Z,84.12
2022-11-21T19:11:36.261Z,84.74
2022-11-21T19:14:04.585Z,83.89
2022-11-21T19:16:34.393Z,84.31
2022-11-21T19:19:33.012Z,83.53
2022-11-21T19:21:50.989Z,84.35
2022-11-21T19:24:20.582Z,84.14
2022-11-21T19:26:50.494Z,84.26
2022-11-21T19:29:18.989Z,84.16
2022-11-21T19:31:47.162Z,83.75
2022-11-21T19:34:15.640Z,84.33
2022-11-21T19:36:44.231Z,83.68
2022-11-21T19:39:12.442Z,84.19
2022-11-21T19:41:41.946Z,83.91
2022-11-21T19:44:11.445Z,84.88
2022-11-21T19:46:40.521Z,84.97
2022-11-21T19:49:09.424Z,85.49
2022-11-21T19:51:39.147Z,85.91
2022-11-21T19:54:08.323Z,85.96
2022-11-21T19:56:36.990Z,86.40
2022-11-21T19:59:06.584Z,85.26
2022-11-21T20:01:35.852Z,85.21
2022-11-21T20:04:05.254Z,85.61
2022-11-21T20:06:34.759Z,84.97
2022-11-21T20:09:04.360Z,85.21
2022-11-21T20:11:32.844Z,85.68
2022-11-21T20:14:01.002Z,86.21
2022-11-21T20:16:31.925Z,85.70
2022-11-21T20:19:01.022Z,86.38
2022-11-21T20:21:29.803Z,86.10
2022-11-21T20:23:58.301Z,85.90
2022-11-21T20:26:27.220Z,86.18
2022-11-21T20:28:55.626Z,85.17
2022-11-21T20:31:26.960Z,85.80
2022-11-21T20:34:00.385Z,85.02
2022-11-21T20:36:32.846Z,86.24
2022-11-21T20:39:02.922Z,85.12
2022-11-21T20:41:32.637Z,84.82
2022-11-21T20:46:53.897Z,84.80
2022-11-21T20:49:23.370Z,84.62
2022-11-21T20:54:40.146Z,84.83
2022-11-21T20:57:14.288Z,85.08
2022-11-21T20:59:43.076Z,85.29
2022-11-21T21:02:13.911Z,84.85
2022-11-21T21:04:43.680Z,84.38
2022-11-21T21:07:11.818Z,84.02
2022-11-21T21:09:40.246Z,84.13
2022-11-21T21:12:08.656Z,84.94
2022-11-21T21:14:36.654Z,84.27
2022-11-21T21:17:04.744Z,84.47
2022-11-21T21:19:33.028Z,83.44
2022-11-21T21:22:02.582Z,82.95
2022-11-21T21:24:30.662Z,83.21
2022-11-21T21:26:58.991Z,83.00
2022-11-21T21:29:27.317Z,82.85
2022-11-21T21:31:55.572Z,82.64
2022-11-21T21:34:23.968Z,82.43
2022-11-21T21:36:52.296Z,82.25
2022-11-21T21:39:21.646Z,81.67
2022-11-21T21:41:49.677Z,82.18
2022-11-21T21:44:17.663Z,83.02
2022-11-21T21:46:46.091Z,82.35
2022-11-21T21:49:14.176Z,82.28
2022-11-21T21:51:42.349Z,81.50
2022-11-21T21:54:17.454Z,82.01
2022-11-21T21:56:47.128Z,82.13
2022-11-21T21:59:15.474Z,82.71
2022-11-21T22:01:43.841Z,82.27
2022-11-21T22:04:13.270Z,82.88
2022-11-21T22:06:41.542Z,82.34
2022-11-21T22:09:09.885Z,82.42
2022-11-21T22:11:39.259Z,81.33
2022-11-21T22:14:11.940Z,82.01
2022-11-21T22:16:40.120Z,81.69
2022-11-21T22:19:08.328Z,81.45
2022-11-21T22:21:37.401Z,81.92
2022-11-21T22:24:24.976Z,83.19
2022-11-21T22:26:54.258Z,82.48
2022-11-21T22:29:23.867Z,81.81
2022-11-21T22:31:51.968Z,81.11
2022-11-21T22:34:20.077Z,82.13
2022-11-21T22:36:48.177Z,82.63
2022-11-21T22:39:17.338Z,81.63
2022-11-21T22:41:45.521Z,82.60
2022-11-21T22:44:13.629Z,81.75
2022-11-21T22:46:43.016Z,82.18
2022-11-21T22:49:11.081Z,81.57
2022-11-21T22:51:39.145Z,81.14
2022-11-21T22:54:07.294Z,81.24
2022-11-21T22:56:35.400Z,81.88
2022-11-21T22:59:03.496Z,82.15
2022-11-21T23:01:33.991Z,81.79
2022-11-21T23:04:03.536Z,81.95
2022-11-21T23:06:31.544Z,80.97
2022-11-21T23:08:59.732Z,81.98
2022-11-21T23:11:29.018Z,81.74
2022-11-21T23:13:57.759Z,82.00
2022-11-21T23:16:26.365Z,81.53
2022-11-21T23:18:55.041Z,81.79
2022-11-21T23:21:24.637Z,81.21
2022-11-21T23:23:52.684Z,82.12
2022-11-21T23:26:20.733Z,81.25
2022-11-21T23:28:48.808Z,81.90
2022-11-21T23:31:17.156Z,81.42
2022-11-21T23:33:45.442Z,82.63
2022-11-21T23:36:13.542Z,81.79
2022-11-21T23:38:43.023Z,82.03
2022-11-21T23:41:11.132Z,81.16
2022-11-21T23:43:39.175Z,82.19
2022-11-21T23:46:07.274Z,81.42
2022-11-21T23:48:35.342Z,81.73
2022-11-21T23:51:03.342Z,82.35
2022-11-21T23:53:31.445Z,81.36
2022-11-21T23:56:00.825Z,82.07
2022-11-21T23:58:28.881Z,82.67
